createdAt,value
2017-11-11T00:02:11.902Z,6.80
2017-11-11T00:05:13.491Z,6.80
2017-11-11T00:08:14.948Z,6.80
2017-11-11T00:11:17.116Z,6.80
2017-11-11T00:14:19.288Z,6.80
2017-11-11T00:17:21.410Z,6.70
2017-11-11T00:20:22.860Z,6.70
2017-11-11T00:23:24.339Z,6.80
2017-11-11T00:26:25.732Z,6.70
2017-11-11T00:29:27.154Z,6.60
2017-11-11T00:32:29.349Z,6.70
2017-11-11T00:35:30.781Z,6.70
2017-11-11T00:38:32.971Z,6.70
2017-11-11T00:41:34.408Z,6.60
2017-11-11T00:44:36.579Z,6.70
2017-11-11T00:47:38.873Z,6.80
2017-11-11T00:50:40.253Z,6.80
2017-11-11T00:53:41.725Z,6.90
2017-11-11T00:56:43.110Z,6.60
2017-11-11T00:59:44.578Z,6.70
2017-11-11T01:02:46.015Z,6.70
2017-11-11T01:05:47.429Z,6.70
2017-11-11T01:08:48.809Z,6.80
2017-11-11T01:11:50.906Z,6.60
2017-11-11T01:14:52.317Z,6.60
2017-11-11T01:17:54.774Z,6.60
2017-11-11T01:20:56.674Z,6.60
2017-11-11T01:23:58.789Z,6.60
2017-11-11T01:27:00.607Z,6.50
2017-11-11T01:30:02.080Z,6.40
2017-11-11T01:33:03.453Z,6.50
2017-11-11T01:36:04.896Z,6.50
2017-11-11T01:39:06.362Z,6.40
2017-11-11T01:42:07.746Z,6.30
2017-11-11T01:45:10.097Z,6.60
2017-11-11T01:48:11.457Z,6.60
2017-11-11T01:51:12.889Z,6.60
2017-11-11T01:54:14.468Z,6.70
2017-11-11T01:57:15.992Z,6.60
2017-11-11T02:00:17.409Z,6.70
2017-11-11T02:03:18.840Z,6.60
2017-11-11T02:06:20.973Z,6.70
2017-11-11T02:09:22.397Z,6.70
2017-11-11T02:12:23.793Z,6.70
2017-11-11T02:15:25.365Z,6.60
2017-11-11T02:18:27.517Z,6.70
2017-11-11T02:21:29.024Z,6.60
2017-11-11T02:24:30.510Z,6.60
2017-11-11T02:27:31.906Z,6.50
2017-11-11T02:30:33.350Z,6.70
2017-11-11T02:33:35.504Z,6.70
2017-11-11T02:36:36.881Z,6.70
2017-11-11T02:39:38.287Z,6.50
2017-11-11T02:42:39.749Z,6.50
2017-11-11T02:45:41.321Z,6.70
2017-11-11T02:48:43.470Z,6.70
2017-11-11T02:51:44.963Z,6.70
2017-11-11T02:54:46.373Z,6.70
2017-11-11T02:57:47.791Z,6.60
2017-11-11T03:00:49.246Z,6.50
2017-11-11T03:03:50.629Z,6.60
2017-11-11T03:06:52.117Z,6.60
2017-11-11T03:09:54.261Z,6.60
2017-11-11T03:12:55.668Z,6.50
2017-11-11T03:15:57.092Z,6.70
2017-11-11T03:18:59.276Z,6.70
2017-11-11T03:22:00.696Z,6.60
2017-11-11T03:25:02.852Z,6.70
2017-11-11T03:28:04.477Z,6.70
2017-11-11T03:31:05.892Z,6.70
2017-11-11T03:34:07.485Z,6.80
2017-11-11T03:37:08.853Z,6.50
2017-11-11T03:40:10.254Z,6.50
2017-11-11T03:43:11.748Z,6.50
2017-11-11T03:46:13.196Z,6.50
2017-11-11T03:49:14.577Z,6.50
2017-11-11T03:52:15.944Z,6.50
2017-11-11T03:55:18.081Z,6.40
2017-11-11T03:58:19.519Z,6.30
2017-11-11T04:01:21.640Z,6.70
2017-11-11T04:04:23.041Z,6.50
2017-11-11T04:07:24.452Z,6.40
2017-11-11T04:10:25.870Z,6.40
2017-11-11T04:13:27.236Z,6.40
2017-11-11T04:16:29.380Z,6.40
2017-11-11T04:19:30.748Z,6.30
2017-11-11T04:22:32.880Z,6.40
2017-11-11T04:25:34.342Z,6.40
2017-11-11T04:28:35.701Z,6.50
2017-11-11T04:31:37.106Z,6.50
2017-11-11T04:34:38.478Z,6.40
2017-11-11T04:37:40.610Z,6.50
2017-11-11T04:40:41.992Z,6.40
2017-11-11T04:43:43.363Z,6.40
2017-11-11T04:46:44.784Z,6.40
2017-11-11T04:49:46.188Z,6.30
2017-11-11T04:52:47.730Z,6.30
2017-11-11T04:55:49.103Z,6.30
2017-11-11T04:58:51.193Z,6.40
2017-11-11T05:01:52.951Z,6.40
2017-11-11T05:04:54.365Z,6.40
2017-11-11T05:07:55.720Z,6.50
2017-11-11T05:10:57.078Z,6.60
2017-11-11T05:13:58.497Z,6.60
2017-11-11T05:16:59.913Z,6.70
2017-11-11T05:20:01.365Z,6.70
2017-11-11T05:23:02.719Z,6.70
2017-11-11T05:26:04.135Z,6.70
2017-11-11T05:29:05.457Z,6.70
2017-11-11T05:32:06.929Z,6.70
2017-11-11T05:35:08.532Z,6.60
2017-11-11T05:38:09.944Z,6.60
2017-11-11T05:41:11.389Z,6.40
2017-11-11T05:44:12.735Z,6.60
2017-11-11T05:47:14.143Z,6.70
2017-11-11T05:50:15.521Z,6.60
2017-11-11T05:53:16.965Z,6.60
2017-11-11T05:56:18.329Z,6.60
2017-11-11T05:59:19.724Z,6.60
2017-11-11T06:02:21.092Z,6.70
2017-11-11T06:05:22.607Z,6.60
2017-11-11T06:08:23.982Z,6.60
2017-11-11T06:11:26.442Z,6.70
2017-11-11T06:14:28.574Z,6.70
2017-11-11T06:17:29.914Z,6.60
2017-11-11T06:20:31.312Z,6.70
2017-11-11T06:23:33.403Z,6.60
2017-11-11T06:26:34.851Z,6.60
2017-11-11T06:29:36.317Z,6.60
2017-11-11T06:32:37.699Z,6.70
2017-11-11T06:35:39.129Z,6.60
2017-11-11T06:38:40.524Z,6.70
2017-11-11T06:41:41.924Z,6.70
2017-11-11T06:44:43.273Z,6.80
2017-11-11T06:47:44.761Z,6.40
2017-11-11T06:50:46.153Z,6.70
2017-11-11T06:53:48.269Z,6.70
2017-11-11T06:56:49.705Z,6.70
2017-11-11T06:59:51.108Z,6.70
2017-11-11T07:02:52.521Z,6.60
2017-11-11T07:05:53.853Z,6.60
2017-11-11T07:08:55.305Z,6.60
2017-11-11T07:11:56.780Z,6.60
2017-11-11T07:14:58.125Z,6.70
2017-11-11T07:17:59.453Z,6.80
2017-11-11T07:21:00.756Z,6.80
2017-11-11T07:24:02.068Z,6.80
2017-11-11T07:27:03.439Z,6.80
2017-11-11T07:30:04.795Z,6.80
2017-11-11T07:33:06.119Z,6.80
2017-11-11T07:36:07.384Z,6.90
2017-11-11T07:39:08.707Z,6.90
2017-11-11T07:42:10.021Z,7.00
2017-11-11T07:45:12.113Z,7.00
2017-11-11T07:48:13.397Z,7.00
2017-11-11T07:51:14.732Z,7.00
2017-11-11T07:54:16.065Z,7.00
2017-11-11T07:57:17.359Z,7.00
2017-11-11T08:00:18.736Z,7.00
2017-11-11T08:03:20.757Z,7.00
2017-11-11T08:06:22.104Z,7.00
2017-11-11T08:09:23.394Z,7.00
2017-11-11T08:12:24.745Z,7.00
2017-11-11T08:15:26.105Z,7.10
2017-11-11T08:18:28.293Z,7.00
2017-11-11T08:21:29.791Z,7.00
2017-11-11T08:24:32.061Z,7.00
2017-11-11T08:27:34.274Z,6.80
2017-11-11T08:30:35.869Z,6.80
2017-11-11T08:33:37.307Z,6.70
2017-11-11T08:36:38.806Z,6.60
2017-11-11T08:39:40.158Z,6.60
2017-11-11T08:42:41.520Z,6.70
2017-11-11T08:45:43.001Z,6.80
2017-11-11T08:48:44.353Z,6.70
2017-11-11T08:51:45.729Z,6.70
2017-11-11T08:54:48.029Z,6.80
2017-11-11T08:57:50.099Z,6.80
2017-11-11T09:00:52.381Z,6.80
2017-11-11T09:03:53.777Z,6.80
2017-11-11T09:06:55.181Z,6.80
2017-11-11T09:09:56.576Z,6.80
2017-11-11T09:12:58.114Z,6.90
2017-11-11T09:16:00.181Z,6.80
2017-11-11T09:19:01.504Z,6.90
2017-11-11T09:22:02.916Z,6.80
2017-11-11T09:25:04.278Z,6.90
2017-11-11T09:28:05.625Z,6.80
2017-11-11T09:31:06.938Z,6.90
2017-11-11T09:34:08.301Z,6.80
2017-11-11T09:37:09.567Z,6.80
2017-11-11T09:40:10.851Z,6.90
2017-11-11T09:43:12.157Z,6.90
2017-11-11T09:46:13.442Z,6.90
2017-11-11T09:49:14.727Z,6.90
2017-11-11T09:52:16.044Z,6.80
2017-11-11T09:55:17.379Z,6.80
2017-11-11T09:58:18.665Z,6.80
2017-11-11T10:01:20.717Z,6.80
2017-11-11T10:04:22.013Z,6.80
2017-11-11T10:07:23.309Z,7.60
2017-11-11T10:10:24.629Z,7.60
2017-11-11T10:13:25.980Z,7.50
2017-11-11T10:16:27.292Z,7.20
2017-11-11T10:19:28.564Z,7.10
2017-11-11T10:22:30.703Z,7.00
2017-11-11T10:25:32.771Z,7.00
2017-11-11T10:28:34.849Z,7.10
2017-11-11T10:31:36.146Z,7.00
2017-11-11T10:34:37.483Z,7.00
2017-11-11T10:37:38.764Z,7.00
2017-11-11T10:40:40.129Z,7.00
2017-11-11T10:43:42.241Z,11.40
2017-11-11T10:46:43.524Z,11.30
2017-11-11T10:49:44.916Z,12.70
2017-11-11T10:52:46.279Z,12.60
2017-11-11T10:55:47.643Z,13.90
2017-11-11T10:58:48.945Z,14.70
2017-11-11T11:01:50.999Z,12.10
2017-11-11T11:04:52.380Z,12.00
2017-11-11T11:07:53.705Z,10.20
2017-11-11T11:10:55.797Z,8.50
2017-11-11T11:13:57.268Z,8.50
2017-11-11T11:16:58.564Z,8.00
2017-11-11T11:19:59.845Z,7.90
2017-11-11T11:23:01.229Z,7.80
2017-11-11T11:26:02.680Z,7.70
2017-11-11T11:29:03.994Z,7.70
2017-11-11T11:32:06.146Z,7.50
2017-11-11T11:35:08.325Z,7.60
2017-11-11T11:38:10.389Z,7.50
2017-11-11T11:41:12.438Z,7.40
2017-11-11T11:44:13.763Z,7.40
2017-11-11T11:47:15.042Z,7.50
2017-11-11T11:50:16.376Z,7.50
2017-11-11T11:53:17.733Z,7.50
2017-11-11T11:56:19.041Z,7.50
2017-11-11T11:59:20.407Z,7.60
2017-11-11T12:02:21.728Z,7.60
2017-11-11T12:05:23.066Z,7.50
2017-11-11T12:08:24.447Z,7.50
2017-11-11T12:11:26.057Z,7.60
2017-11-11T12:14:28.171Z,7.80
2017-11-11T12:17:29.588Z,7.80
2017-11-11T12:20:30.919Z,7.70
2017-11-11T12:23:32.244Z,7.60
2017-11-11T12:26:33.611Z,7.60
2017-11-11T12:29:34.998Z,7.60
2017-11-11T12:32:36.393Z,11.70
2017-11-11T12:35:37.841Z,15.30
2017-11-11T12:38:39.217Z,15.10
2017-11-11T12:41:40.565Z,12.40
2017-11-11T12:44:41.964Z,10.70
2017-11-11T12:47:43.374Z,9.60
2017-11-11T12:50:44.748Z,8.90
2017-11-11T12:53:46.939Z,8.10
2017-11-11T12:56:48.366Z,8.10
2017-11-11T12:59:50.460Z,7.90
2017-11-11T13:02:51.791Z,7.90
2017-11-11T13:05:53.180Z,7.90
2017-11-11T13:08:54.487Z,7.90
2017-11-11T13:11:55.805Z,7.80
2017-11-11T13:14:57.196Z,7.80
2017-11-11T13:17:58.507Z,7.70
2017-11-11T13:20:59.872Z,7.70
2017-11-11T13:24:01.966Z,7.70
2017-11-11T13:27:03.356Z,7.60
2017-11-11T13:30:04.727Z,7.70
2017-11-11T13:33:06.098Z,7.60
2017-11-11T13:36:07.427Z,7.60
2017-11-11T13:39:08.782Z,7.50
2017-11-11T13:42:10.191Z,7.40
2017-11-11T13:45:11.557Z,7.50
2017-11-11T13:48:12.941Z,7.50
2017-11-11T13:51:14.288Z,7.60
2017-11-11T13:54:16.350Z,7.60
2017-11-11T13:57:17.661Z,7.60
2017-11-11T14:00:19.025Z,7.60
2017-11-11T14:03:20.288Z,7.60
2017-11-11T14:06:21.559Z,7.50
2017-11-11T14:09:23.719Z,7.60
2017-11-11T14:12:25.033Z,7.60
2017-11-11T14:15:26.403Z,7.60
2017-11-11T14:18:27.733Z,7.60
2017-11-11T14:21:29.106Z,7.60
2017-11-11T14:24:30.400Z,7.60
2017-11-11T14:27:31.798Z,7.60
2017-11-11T14:30:33.147Z,7.60
2017-11-11T14:33:34.472Z,7.60
2017-11-11T14:36:35.829Z,7.60
2017-11-11T14:39:37.171Z,7.60
2017-11-11T14:42:38.547Z,7.60
2017-11-11T14:45:39.901Z,7.70
2017-11-11T14:48:41.241Z,7.70
2017-11-11T14:51:42.561Z,7.70
2017-11-11T14:54:43.937Z,7.80
2017-11-11T14:57:45.310Z,7.80
2017-11-11T15:00:46.644Z,7.70
2017-11-11T15:03:48.014Z,7.70
2017-11-11T15:06:49.311Z,7.70
2017-11-11T15:09:50.626Z,7.70
2017-11-11T15:12:52.663Z,7.80
2017-11-11T15:15:53.978Z,7.70
2017-11-11T15:18:55.279Z,7.90
2017-11-11T15:21:56.618Z,7.80
2017-11-11T15:24:57.951Z,7.80
2017-11-11T15:27:59.296Z,7.80
2017-11-11T15:31:00.617Z,7.80
2017-11-11T15:34:01.968Z,7.80
2017-11-11T15:37:03.336Z,7.80
2017-11-11T15:40:04.684Z,7.80
2017-11-11T15:43:06.077Z,7.70
2017-11-11T15:46:07.404Z,7.90
2017-11-11T15:49:08.767Z,7.80
2017-11-11T15:52:10.235Z,7.80
2017-11-11T15:55:12.366Z,7.80
2017-11-11T15:58:13.754Z,7.80
2017-11-11T16:01:15.118Z,7.90
2017-11-11T16:04:17.210Z,7.80
2017-11-11T16:07:18.557Z,7.70
2017-11-11T16:10:19.993Z,7.90
2017-11-11T16:13:21.378Z,7.80
2017-11-11T16:16:22.746Z,7.80
2017-11-11T16:19:24.124Z,7.80
2017-11-11T16:22:25.437Z,7.80
2017-11-11T16:25:27.574Z,7.80
2017-11-11T16:28:28.932Z,7.80
2017-11-11T16:31:30.314Z,7.90
2017-11-11T16:34:31.671Z,7.90
2017-11-11T16:37:33.012Z,7.90
2017-11-11T16:40:34.341Z,7.90
2017-11-11T16:43:35.653Z,7.80
2017-11-11T16:46:37.793Z,7.80
2017-11-11T16:49:39.112Z,7.80
2017-11-11T16:52:40.538Z,7.80
2017-11-11T16:55:41.884Z,7.70
2017-11-11T16:58:43.998Z,7.80
2017-11-11T17:01:45.331Z,7.70
2017-11-11T17:04:46.704Z,7.80
2017-11-11T17:07:48.043Z,7.70
2017-11-11T17:10:49.419Z,7.60
2017-11-11T17:13:50.809Z,7.60
2017-11-11T17:20:00.946Z,7.60
2017-11-11T17:23:02.249Z,7.70
2017-11-11T17:26:03.589Z,7.70
2017-11-11T17:29:04.958Z,7.60
2017-11-11T17:32:06.222Z,7.70
2017-11-11T17:35:07.519Z,7.60
2017-11-11T17:38:09.541Z,7.50
2017-11-11T17:41:10.837Z,7.50
2017-11-11T17:44:12.884Z,7.50
2017-11-11T17:47:14.201Z,7.50
2017-11-11T17:50:15.886Z,7.60
2017-11-11T17:53:17.388Z,7.90
2017-11-11T17:56:18.782Z,7.80
2017-11-11T17:59:20.160Z,7.70
2017-11-11T18:02:22.004Z,7.60
2017-11-11T18:05:24.153Z,7.50
2017-11-11T18:08:25.599Z,7.50
2017-11-11T18:11:29.090Z,7.40
2017-11-11T18:14:32.546Z,7.50
2017-11-11T18:17:35.072Z,7.50
2017-11-11T18:20:37.765Z,7.50
2017-11-11T18:23:39.358Z,7.40
2017-11-11T18:26:40.769Z,7.30
2017-11-11T18:29:42.208Z,7.50
2017-11-11T18:32:43.686Z,7.60
2017-11-11T18:35:45.225Z,7.70
2017-11-11T18:38:46.669Z,7.60
2017-11-11T18:41:48.082Z,7.70
2017-11-11T18:44:50.210Z,7.50
2017-11-11T18:47:51.577Z,7.50
2017-11-11T18:50:52.974Z,7.50
2017-11-11T18:53:54.413Z,7.50
2017-11-11T18:56:56.825Z,7.40
2017-11-11T18:59:58.204Z,7.40
2017-11-11T19:02:59.839Z,7.60
2017-11-11T19:06:01.638Z,7.40
2017-11-11T19:09:03.065Z,7.20
2017-11-11T19:12:04.545Z,7.20
2017-11-11T19:15:05.991Z,7.30
2017-11-11T19:18:07.595Z,7.00
2017-11-11T19:21:08.957Z,7.20
2017-11-11T19:24:10.325Z,7.20
2017-11-11T19:27:11.773Z,7.20
2017-11-11T19:30:13.416Z,7.10
2017-11-11T19:33:14.811Z,7.00
2017-11-11T19:36:16.210Z,7.10
2017-11-11T19:39:17.628Z,7.00
2017-11-11T19:42:19.765Z,6.90
2017-11-11T19:45:21.209Z,6.90
2017-11-11T19:48:22.625Z,7.00
2017-11-11T19:51:24.017Z,6.90
2017-11-11T19:54:25.444Z,7.00
2017-11-11T19:57:26.798Z,7.10
2017-11-11T20:00:28.174Z,7.10
2017-11-11T20:03:29.711Z,7.10
2017-11-11T20:06:31.753Z,6.90
2017-11-11T20:09:34.179Z,7.10
2017-11-11T20:12:35.564Z,7.00
2017-11-11T20:15:37.351Z,7.10
2017-11-11T20:18:38.742Z,7.10
2017-11-11T20:21:40.136Z,7.10
2017-11-11T20:24:41.606Z,7.20
2017-11-11T20:27:43.114Z,7.10
2017-11-11T20:30:44.594Z,7.30
2017-11-11T20:33:46.129Z,7.40
2017-11-11T20:36:48.251Z,7.40
2017-11-11T20:39:49.758Z,7.30
2017-11-11T20:42:52.015Z,7.20
2017-11-11T20:45:53.433Z,7.00
2017-11-11T20:48:54.908Z,7.10
2017-11-11T20:51:56.312Z,7.10
2017-11-11T20:54:57.742Z,7.20
2017-11-11T20:57:59.891Z,7.10
2017-11-11T21:01:01.409Z,7.20
2017-11-11T21:04:02.915Z,7.20
2017-11-11T21:07:04.416Z,7.20
2017-11-11T21:10:05.930Z,7.10
2017-11-11T21:13:08.290Z,7.10
2017-11-11T21:16:10.508Z,7.10
2017-11-11T21:19:12.034Z,7.10
2017-11-11T21:22:13.493Z,7.10
2017-11-11T21:25:14.936Z,7.00
2017-11-11T21:28:17.395Z,7.00
2017-11-11T21:31:18.881Z,6.80
2017-11-11T21:34:21.085Z,16.40
2017-11-11T21:37:22.538Z,16.20
2017-11-11T21:40:24.200Z,14.30
2017-11-11T21:43:25.685Z,11.50
2017-11-11T21:46:27.191Z,9.70
2017-11-11T21:49:28.963Z,8.80
2017-11-11T21:52:30.860Z,8.20
2017-11-11T21:55:32.652Z,8.00
2017-11-11T21:58:34.263Z,7.80
2017-11-11T22:01:36.471Z,7.40
2017-11-11T22:04:37.925Z,7.40
2017-11-11T22:07:39.437Z,7.30
2017-11-11T22:10:41.009Z,7.20
2017-11-11T22:13:42.424Z,7.20
2017-11-11T22:16:43.871Z,6.90
2017-11-11T22:19:45.300Z,7.10
2017-11-11T22:22:47.501Z,7.00
2017-11-11T22:25:48.893Z,6.90
2017-11-11T22:28:50.292Z,6.80
2017-11-11T22:31:51.773Z,6.80
2017-11-11T22:34:53.161Z,6.60
2017-11-11T22:37:55.393Z,6.70
2017-11-11T22:40:56.909Z,6.60
2017-11-11T22:43:58.399Z,6.70
2017-11-11T22:46:59.931Z,6.70
2017-11-11T22:50:01.526Z,6.60
2017-11-11T22:53:03.132Z,6.60
2017-11-11T22:56:04.571Z,6.50
2017-11-11T22:59:06.859Z,6.40
2017-11-11T23:02:08.401Z,6.50
2017-11-11T23:05:10.675Z,6.50
2017-11-11T23:08:12.910Z,6.60
2017-11-11T23:11:14.489Z,6.50
2017-11-11T23:14:16.708Z,6.60
2017-11-11T23:17:18.168Z,6.60
2017-11-11T23:20:19.633Z,6.50
2017-11-11T23:23:21.099Z,6.50
2017-11-11T23:26:22.666Z,6.60
2017-11-11T23:29:24.166Z,6.40
2017-11-11T23:32:25.636Z,6.50
2017-11-11T23:35:27.096Z,6.40
2017-11-11T23:38:28.714Z,6.50
2017-11-11T23:41:30.958Z,6.30
2017-11-11T23:44:32.361Z,6.20
2017-11-11T23:47:33.920Z,6.30
2017-11-11T23:50:35.355Z,6.30
2017-11-11T23:53:37.615Z,6.30
2017-11-11T23:56:39.765Z,6.20
2017-11-11T23:59:41.413Z,6.20
